createdAt,value
2018-04-19T00:00:24.867Z,74.52
2018-04-19T00:02:20.989Z,74.91
2018-04-19T00:03:20.866Z,74.72
2018-04-19T00:05:17.020Z,74.97
2018-04-19T00:06:16.872Z,74.33
2018-04-19T00:08:13.044Z,75.10
2018-04-19T00:09:12.849Z,75.20
2018-04-19T00:11:08.092Z,74.52
2018-04-19T00:12:07.883Z,73.95
2018-04-19T00:14:03.973Z,74.01
2018-04-19T00:15:03.904Z,74.58
2018-04-19T00:17:00.026Z,74.87
2018-04-19T00:17:59.889Z,75.07
2018-04-19T00:19:55.988Z,74.40
2018-04-19T00:20:55.826Z,74.68
2018-04-19T00:22:51.985Z,74.87
2018-04-19T00:23:51.823Z,74.68
2018-04-19T00:25:47.993Z,75.35
2018-04-19T00:26:47.896Z,75.26
2018-04-19T00:28:43.989Z,75.54
2018-04-19T00:29:43.849Z,75.45
2018-04-19T00:31:40.064Z,74.97
2018-04-19T00:32:39.832Z,74.97
2018-04-19T00:34:36.731Z,74.77
2018-04-19T00:35:36.480Z,74.58
2018-04-19T00:37:32.601Z,75.07
2018-04-19T00:38:32.461Z,74.87
2018-04-19T00:40:29.033Z,75.07
2018-04-19T00:41:28.406Z,75.26
2018-04-19T00:43:24.555Z,74.68
2018-04-19T00:44:24.395Z,74.87
2018-04-19T00:46:20.495Z,74.68
2018-04-19T00:47:20.350Z,75.16
2018-04-19T00:49:16.442Z,75.54
2018-04-19T00:50:16.282Z,74.68
2018-04-19T00:52:12.415Z,75.26
2018-04-19T00:53:12.258Z,75.64
2018-04-19T00:55:08.404Z,75.31
2018-04-19T00:56:08.248Z,75.79
2018-04-19T00:58:04.325Z,76.27
2018-04-19T00:59:04.180Z,76.27
2018-04-19T01:00:57.991Z,75.89
2018-04-19T01:01:57.841Z,75.70
2018-04-19T01:03:54.023Z,75.89
2018-04-19T01:04:53.864Z,75.79
2018-04-19T01:06:50.245Z,75.98
2018-04-19T01:07:49.885Z,75.60
2018-04-19T01:09:46.084Z,75.98
2018-04-19T01:10:45.873Z,75.98
2018-04-19T01:12:42.054Z,76.62
2018-04-19T01:13:41.874Z,76.71
2018-04-19T01:15:38.039Z,76.23
2018-04-19T01:16:37.800Z,77.00
2018-04-19T01:18:34.075Z,77.95
2018-04-19T01:19:33.875Z,78.05
2018-04-19T01:21:30.112Z,77.57
2018-04-19T01:22:29.909Z,77.57
2018-04-19T01:24:25.293Z,77.67
2018-04-19T01:25:24.983Z,77.76
2018-04-19T01:27:21.159Z,77.67
2018-04-19T01:28:20.951Z,77.48
2018-04-19T01:30:17.173Z,77.76
2018-04-19T01:31:16.958Z,77.48
2018-04-19T01:33:13.120Z,76.52
2018-04-19T01:34:12.908Z,76.33
2018-04-19T01:36:09.036Z,76.81
2018-04-19T01:37:08.883Z,77.09
2018-04-19T01:39:05.123Z,76.90
2018-04-19T01:40:04.925Z,77.09
2018-04-19T01:42:01.123Z,77.25
2018-04-19T01:43:00.907Z,77.00
2018-04-19T01:44:57.133Z,76.20
2018-04-19T01:45:56.925Z,76.20
2018-04-19T01:47:53.068Z,76.96
2018-04-19T01:48:52.897Z,77.06
2018-04-19T01:50:49.468Z,76.77
2018-04-19T01:51:48.931Z,77.06
2018-04-19T01:53:45.143Z,76.67
2018-04-19T01:54:44.906Z,76.96
2018-04-19T01:56:42.241Z,76.77
2018-04-19T01:57:41.948Z,76.77
2018-04-19T01:59:38.020Z,77.34
2018-04-19T02:00:37.901Z,77.63
2018-04-19T02:02:34.078Z,76.86
2018-04-19T02:03:33.929Z,77.72
2018-04-19T02:05:27.477Z,77.63
2018-04-19T02:06:27.357Z,77.50
2018-04-19T02:08:24.030Z,77.44
2018-04-19T02:09:23.279Z,78.16
2018-04-19T02:11:16.941Z,78.07
2018-04-19T02:12:16.781Z,78.16
2018-04-19T02:14:13.051Z,77.59
2018-04-19T02:15:12.894Z,77.34
2018-04-19T02:17:09.131Z,77.44
2018-04-19T02:18:08.928Z,78.36
2018-04-19T02:20:05.172Z,78.16
2018-04-19T02:21:05.000Z,78.07
2018-04-19T02:23:01.108Z,78.36
2018-04-19T02:24:00.947Z,78.36
2018-04-19T02:25:57.037Z,78.55
2018-04-19T02:26:56.929Z,78.26
2018-04-19T02:28:53.133Z,78.45
2018-04-19T02:29:52.968Z,78.26
2018-04-19T02:31:49.158Z,78.64
2018-04-19T02:32:48.984Z,78.36
2018-04-19T02:34:45.745Z,78.74
2018-04-19T02:35:44.989Z,78.55
2018-04-19T02:37:41.164Z,78.20
2018-04-19T02:38:41.012Z,78.07
2018-04-19T02:40:37.101Z,77.97
2018-04-19T02:41:36.962Z,77.87
2018-04-19T02:43:34.653Z,77.50
2018-04-19T02:44:34.552Z,77.50
2018-04-19T02:46:30.563Z,77.40
2018-04-19T02:47:30.501Z,77.50
2018-04-19T02:49:26.588Z,78.03
2018-04-19T02:50:26.446Z,78.22
2018-04-19T02:52:23.539Z,78.31
2018-04-19T02:53:23.391Z,78.89
2018-04-19T02:55:19.555Z,78.51
2018-04-19T02:56:19.364Z,78.89
2018-04-19T02:58:12.975Z,79.08
2018-04-19T02:59:12.823Z,78.99
2018-04-19T03:01:08.977Z,78.70
2018-04-19T03:02:08.856Z,78.41
2018-04-19T03:04:05.463Z,78.70
2018-04-19T03:05:05.014Z,78.22
2018-04-19T03:07:02.904Z,78.41
2018-04-19T03:08:00.966Z,78.70
2018-04-19T03:09:57.130Z,78.51
2018-04-19T03:10:57.064Z,78.51
2018-04-19T03:11:56.940Z,78.79
2018-04-19T03:12:56.939Z,78.51
2018-04-19T03:13:56.897Z,78.31
2018-04-19T03:14:56.879Z,78.70
2018-04-19T03:15:56.859Z,78.41
2018-04-19T03:16:56.851Z,78.41
2018-04-19T03:17:56.814Z,78.99
2018-04-19T03:18:56.795Z,78.70
2018-04-19T03:19:57.327Z,78.79
2018-04-19T03:20:56.766Z,78.51
2018-04-19T03:21:56.733Z,78.22
2018-04-19T03:22:56.713Z,78.13
2018-04-19T03:23:56.699Z,78.41
2018-04-19T03:24:56.673Z,78.31
2018-04-19T03:25:56.652Z,78.41
2018-04-19T03:26:56.633Z,78.70
2018-04-19T03:27:56.610Z,78.60
2018-04-19T03:28:56.638Z,78.51
2018-04-19T03:29:56.573Z,78.60
2018-04-19T03:30:56.560Z,78.51
2018-04-19T03:31:56.543Z,78.60
2018-04-19T03:32:56.507Z,78.70
2018-04-19T03:33:56.493Z,77.94
2018-04-19T03:34:56.463Z,77.84
2018-04-19T03:35:56.452Z,77.94
2018-04-19T03:36:56.425Z,78.03
2018-04-19T03:37:56.449Z,78.66
2018-04-19T03:38:56.385Z,78.75
2018-04-19T03:39:56.363Z,78.85
2018-04-19T03:40:56.380Z,78.66
2018-04-19T03:41:56.320Z,79.33
2018-04-19T03:42:56.319Z,78.94
2018-04-19T03:43:56.278Z,78.94
2018-04-19T03:44:56.269Z,79.23
2018-04-19T03:45:56.241Z,79.33
2018-04-19T03:46:56.232Z,79.33
2018-04-19T03:47:56.212Z,79.23
2018-04-19T03:48:56.175Z,79.14
2018-04-19T03:49:56.156Z,78.56
2018-04-19T03:50:56.141Z,78.75
2018-04-19T03:51:56.114Z,78.47
2018-04-19T03:52:56.096Z,78.85
2018-04-19T03:53:56.082Z,78.75
2018-04-19T03:54:56.052Z,78.47
2018-04-19T03:55:56.034Z,79.23
2018-04-19T03:56:56.073Z,78.85
2018-04-19T03:57:56.001Z,78.75
2018-04-19T03:58:56.067Z,78.56
2018-04-19T03:59:56.049Z,78.94
2018-04-19T04:00:56.070Z,79.23
2018-04-19T04:01:56.051Z,78.94
2018-04-19T04:02:56.025Z,78.85
2018-04-19T04:03:56.025Z,78.66
2018-04-19T04:04:55.936Z,78.94
2018-04-19T04:05:55.822Z,79.43
2018-04-19T04:06:55.804Z,79.14
2018-04-19T04:07:55.786Z,79.04
2018-04-19T04:08:55.866Z,79.04
2018-04-19T04:10:02.381Z,78.94
2018-04-19T04:10:55.722Z,79.43
2018-04-19T04:11:55.698Z,79.23
2018-04-19T04:12:55.681Z,79.99
2018-04-19T04:13:55.664Z,79.80
2018-04-19T04:14:55.634Z,79.52
2018-04-19T04:15:55.614Z,79.80
2018-04-19T04:16:55.608Z,80.38
2018-04-19T04:17:55.579Z,80.38
2018-04-19T04:18:55.558Z,80.38
2018-04-19T04:19:55.536Z,80.19
2018-04-19T04:20:55.566Z,80.38
2018-04-19T04:21:55.489Z,80.47
2018-04-19T04:22:55.468Z,81.52
2018-04-19T04:23:55.449Z,80.95
2018-04-19T04:24:55.430Z,80.47
2018-04-19T04:25:55.411Z,79.14
2018-04-19T04:26:55.382Z,79.43
2018-04-19T04:27:55.367Z,79.23
2018-04-19T04:28:55.348Z,79.61
2018-04-19T04:29:55.325Z,78.94
2018-04-19T04:30:55.308Z,79.33
2018-04-19T04:31:55.301Z,79.04
2018-04-19T04:32:55.256Z,79.33
2018-04-19T04:33:55.239Z,79.61
2018-04-19T04:34:55.223Z,79.52
2018-04-19T04:35:55.199Z,79.33
2018-04-19T04:36:55.176Z,79.43
2018-04-19T04:37:55.159Z,79.52
2018-04-19T04:38:55.150Z,80.09
2018-04-19T04:39:55.110Z,80.09
2018-04-19T04:40:55.088Z,79.80
2018-04-19T04:41:55.075Z,79.99
2018-04-19T04:42:55.050Z,79.43
2018-04-19T04:43:55.027Z,79.52
2018-04-19T04:44:55.012Z,79.33
2018-04-19T04:45:54.985Z,79.33
2018-04-19T04:46:54.966Z,79.52
2018-04-19T04:47:54.944Z,79.38
2018-04-19T04:48:54.930Z,80.15
2018-04-19T04:49:54.900Z,80.05
2018-04-19T04:50:54.880Z,79.67
2018-04-19T04:51:54.864Z,80.72
2018-04-19T04:52:54.838Z,80.72
2018-04-19T04:53:54.821Z,80.24
2018-04-19T04:54:54.793Z,80.05
2018-04-19T04:55:54.778Z,79.67
2018-04-19T04:56:54.753Z,79.67
2018-04-19T04:57:54.760Z,79.71
2018-04-19T04:58:54.711Z,79.80
2018-04-19T04:59:54.690Z,79.96
2018-04-19T05:00:54.667Z,80.28
2018-04-19T05:01:54.645Z,79.52
2018-04-19T05:02:54.688Z,79.52
2018-04-19T05:03:54.605Z,79.43
2018-04-19T05:04:54.607Z,79.52
2018-04-19T05:05:54.568Z,79.80
2018-04-19T05:06:54.542Z,79.14
2018-04-19T05:07:54.520Z,79.23
2018-04-19T05:08:54.500Z,79.23
2018-04-19T05:09:54.482Z,79.33
2018-04-19T05:10:54.458Z,79.52
2018-04-19T05:11:54.435Z,79.61
2018-04-19T05:12:54.420Z,79.61
2018-04-19T05:13:54.401Z,79.43
2018-04-19T05:14:54.382Z,79.14
2018-04-19T05:15:54.379Z,79.99
2018-04-19T05:16:54.334Z,79.71
2018-04-19T05:17:54.310Z,79.80
2018-04-19T05:18:54.287Z,79.71
2018-04-19T05:19:54.276Z,79.80
2018-04-19T05:20:54.256Z,79.61
2018-04-19T05:21:54.225Z,79.90
2018-04-19T05:22:54.208Z,79.90
2018-04-19T05:23:54.187Z,79.80
2018-04-19T05:24:54.164Z,79.90
2018-04-19T05:25:54.141Z,80.09
2018-04-19T05:26:54.130Z,80.28
2018-04-19T05:27:54.133Z,80.66
2018-04-19T05:28:54.136Z,80.66
2018-04-19T05:29:54.137Z,80.66
2018-04-19T05:30:54.130Z,80.66
2018-04-19T05:31:54.139Z,80.47
2018-04-19T05:32:54.163Z,80.66
2018-04-19T05:33:55.740Z,80.57
2018-04-19T05:34:54.026Z,80.66
2018-04-19T05:35:54.019Z,80.76
2018-04-19T05:36:53.908Z,80.76
2018-04-19T05:37:53.888Z,80.28
2018-04-19T05:38:53.869Z,79.80
2018-04-19T05:39:53.861Z,79.99
2018-04-19T05:40:53.825Z,80.19
2018-04-19T05:41:53.809Z,80.09
2018-04-19T05:42:53.781Z,79.80
2018-04-19T05:43:53.799Z,79.61
2018-04-19T05:44:53.803Z,80.19
2018-04-19T05:45:53.726Z,79.99
2018-04-19T05:46:53.699Z,79.71
2018-04-19T05:47:53.680Z,80.09
2018-04-19T05:48:53.654Z,79.90
2018-04-19T05:49:53.633Z,80.28
2018-04-19T05:50:53.615Z,79.80
2018-04-19T05:51:53.595Z,79.80
2018-04-19T05:52:53.584Z,79.80
2018-04-19T05:53:53.549Z,80.38
2018-04-19T05:54:54.921Z,80.09
2018-04-19T05:55:53.519Z,80.38
2018-04-19T05:56:53.485Z,80.76
2018-04-19T05:57:53.469Z,80.66
2018-04-19T05:58:53.446Z,80.85
2018-04-19T05:59:53.423Z,81.14
2018-04-19T06:00:53.402Z,81.14
2018-04-19T06:01:53.381Z,80.85
2018-04-19T06:02:53.375Z,80.95
2018-04-19T06:03:53.336Z,80.76
2018-04-19T06:04:53.317Z,80.90
2018-04-19T06:05:53.312Z,80.51
2018-04-19T06:06:53.294Z,80.70
2018-04-19T06:07:53.253Z,80.76
2018-04-19T06:08:53.234Z,81.24
2018-04-19T06:09:53.211Z,81.24
2018-04-19T06:10:53.189Z,81.27
2018-04-19T06:11:53.169Z,81.27
2018-04-19T06:12:53.148Z,81.09
2018-04-19T06:13:53.146Z,81.18
2018-04-19T06:14:53.103Z,80.80
2018-04-19T06:15:53.825Z,81.76
2018-04-19T06:16:53.069Z,81.37
2018-04-19T06:17:53.041Z,81.37
2018-04-19T06:18:53.020Z,81.66
2018-04-19T06:19:53.001Z,81.27
2018-04-19T06:20:52.978Z,81.76
2018-04-19T06:21:52.957Z,81.27
2018-04-19T06:22:52.939Z,80.90
2018-04-19T06:23:52.916Z,80.93
2018-04-19T06:24:52.955Z,80.41
2018-04-19T06:25:52.877Z,80.80
2018-04-19T06:26:52.926Z,80.61
2018-04-19T06:27:52.842Z,80.51
2018-04-19T06:28:52.815Z,80.74
2018-04-19T06:29:52.790Z,80.74
2018-04-19T06:30:52.768Z,80.74
2018-04-19T06:31:52.767Z,80.65
2018-04-19T06:32:52.725Z,80.55
2018-04-19T06:33:52.727Z,80.84
2018-04-19T06:34:52.690Z,81.03
2018-04-19T06:35:52.711Z,80.74
2018-04-19T06:36:53.012Z,80.65
2018-04-19T06:37:52.626Z,80.55
2018-04-19T06:38:52.608Z,80.46
2018-04-19T06:39:52.580Z,80.74
2018-04-19T06:42:35.440Z,79.88
2018-04-19T06:43:35.360Z,79.88
2018-04-19T06:45:31.465Z,80.74
2018-04-19T06:46:31.313Z,80.17
2018-04-19T06:48:27.466Z,80.11
2018-04-19T06:49:27.287Z,80.79
2018-04-19T06:51:25.056Z,80.79
2018-04-19T06:52:23.235Z,80.40
2018-04-19T06:54:19.758Z,80.11
2018-04-19T06:55:19.179Z,79.54
2018-04-19T06:57:15.373Z,79.44
2018-04-19T06:58:15.278Z,79.44
2018-04-19T07:00:09.921Z,80.21
2018-04-19T07:01:09.750Z,79.93
2018-04-19T07:03:05.810Z,80.40
2018-04-19T07:04:05.661Z,80.50
2018-04-19T07:06:01.790Z,80.16
2018-04-19T07:07:01.606Z,79.68
2018-04-19T07:08:57.755Z,79.58
2018-04-19T07:09:57.584Z,79.68
2018-04-19T07:11:51.224Z,80.16
2018-04-19T07:12:51.081Z,79.77
2018-04-19T07:14:47.348Z,79.58
2018-04-19T07:15:47.190Z,79.00
2018-04-19T07:17:43.464Z,78.91
2018-04-19T07:18:43.275Z,79.10
2018-04-19T07:20:39.370Z,78.91
2018-04-19T07:21:39.213Z,78.63
2018-04-19T07:23:35.349Z,79.58
2018-04-19T07:24:35.198Z,79.05
2018-04-19T07:26:31.346Z,79.52
2018-04-19T07:27:31.184Z,80.00
2018-04-19T07:29:27.717Z,79.72
2018-04-19T07:30:27.427Z,80.48
2018-04-19T07:32:23.655Z,80.10
2018-04-19T07:33:23.418Z,80.19
2018-04-19T07:35:19.547Z,80.00
2018-04-19T07:36:19.389Z,80.00
2018-04-19T07:38:15.541Z,79.85
2018-04-19T07:39:15.351Z,79.28
2018-04-19T07:41:11.601Z,78.80
2018-04-19T07:42:11.335Z,78.99
2018-04-19T07:44:07.503Z,78.70
2018-04-19T07:45:07.340Z,78.51
2018-04-19T07:47:03.466Z,78.42
2018-04-19T07:48:03.313Z,78.36
2018-04-19T07:49:59.454Z,78.45
2018-04-19T07:50:59.291Z,78.17
2018-04-19T07:52:55.445Z,77.78
2018-04-19T07:53:55.273Z,77.59
2018-04-19T07:55:51.409Z,76.73
2018-04-19T07:56:51.258Z,76.44
2018-04-19T07:58:47.443Z,76.73
2018-04-19T07:59:47.225Z,76.67
2018-04-19T08:01:43.438Z,75.14
2018-04-19T08:02:43.285Z,75.62
2018-04-19T08:04:39.440Z,74.95
2018-04-19T08:05:39.829Z,74.08
2018-04-19T08:07:35.449Z,73.51
2018-04-19T08:08:35.291Z,73.55
2018-04-19T08:10:31.489Z,73.16
2018-04-19T08:11:31.300Z,72.78
2018-04-19T08:13:27.420Z,72.97
2018-04-19T08:14:27.259Z,71.72
2018-04-19T08:16:23.406Z,71.19
2018-04-19T08:17:23.293Z,71.37
2018-04-19T08:19:17.403Z,71.09
2018-04-19T08:20:17.155Z,70.32
2018-04-19T08:22:13.458Z,70.07
2018-04-19T08:23:13.280Z,70.45
2018-04-19T08:25:09.367Z,70.55
2018-04-19T08:26:09.264Z,70.36
2018-04-19T08:28:05.472Z,69.62
2018-04-19T08:29:05.315Z,69.34
2018-04-19T08:31:01.588Z,67.35
2018-04-19T08:32:01.297Z,65.91
2018-04-19T08:33:57.438Z,64.85
2018-04-19T08:34:57.309Z,64.79
2018-04-19T08:36:53.579Z,63.38
2018-04-19T08:37:53.385Z,61.87
2018-04-19T08:39:49.523Z,57.79
2018-04-19T08:40:49.376Z,55.70
2018-04-19T08:42:45.491Z,53.44
2018-04-19T08:43:45.332Z,52.01
2018-04-19T08:45:41.442Z,49.00
2018-04-19T08:46:41.337Z,47.67
2018-04-19T08:48:38.553Z,44.13
2018-04-19T08:49:38.312Z,42.90
2018-04-19T08:51:32.717Z,40.42
2018-04-19T08:52:32.572Z,39.76
2018-04-19T08:54:28.697Z,38.73
2018-04-19T08:55:28.548Z,39.11
2018-04-19T08:57:24.640Z,40.17
2018-04-19T08:58:24.492Z,40.08
2018-04-19T09:00:20.599Z,38.54
2018-04-19T09:01:20.453Z,38.56
2018-04-19T09:03:16.580Z,36.94
2018-04-19T09:04:16.425Z,35.88
2018-04-19T09:06:12.604Z,34.72
2018-04-19T09:07:12.464Z,34.55
2018-04-19T09:09:08.599Z,33.88
2018-04-19T09:10:08.433Z,33.98
2018-04-19T09:12:03.006Z,33.02
2018-04-19T09:13:02.855Z,32.53
2018-04-19T09:14:59.034Z,31.77
2018-04-19T09:15:58.882Z,31.77
2018-04-19T09:17:54.992Z,31.10
2018-04-19T09:18:54.827Z,31.49
2018-04-19T09:20:48.512Z,31.69
2018-04-19T09:21:48.359Z,31.79
2018-04-19T09:23:44.519Z,31.70
2018-04-19T09:26:00.511Z,31.13
2018-04-19T09:27:00.348Z,31.82
2018-04-19T09:28:56.538Z,30.16
2018-04-19T09:29:56.371Z,30.27
2018-04-19T09:31:53.472Z,29.98
2018-04-19T09:32:53.239Z,29.98
2018-04-19T09:34:49.516Z,31.13
2018-04-19T09:35:49.326Z,31.31
2018-04-19T09:37:45.521Z,32.67
2018-04-19T09:38:45.350Z,32.47
2018-04-19T09:40:41.650Z,32.47
2018-04-19T09:41:41.418Z,32.26
2018-04-19T09:43:37.768Z,32.94
2018-04-19T09:44:37.514Z,32.45
2018-04-19T09:46:33.653Z,33.22
2018-04-19T09:47:33.483Z,33.22
2018-04-19T09:49:29.677Z,33.88
2018-04-19T09:50:29.515Z,34.56
2018-04-19T09:52:25.703Z,35.34
2018-04-19T09:53:25.510Z,36.10
2018-04-19T09:55:22.697Z,35.71
2018-04-19T09:56:22.376Z,36.18
2018-04-19T09:58:18.636Z,37.64
2018-04-19T09:59:18.388Z,38.03
2018-04-19T10:01:14.522Z,36.36
2018-04-19T10:02:14.376Z,36.55
2018-04-19T10:04:11.004Z,36.65
2018-04-19T10:05:10.722Z,36.85
2018-04-19T10:07:04.480Z,36.85
2018-04-19T10:08:04.410Z,37.12
2018-04-19T10:10:01.643Z,36.54
2018-04-19T10:11:01.379Z,36.54
2018-04-19T10:12:57.826Z,37.01
2018-04-19T10:13:57.694Z,36.52
2018-04-19T10:14:57.405Z,36.91
2018-04-19T10:15:57.463Z,36.81
2018-04-19T10:16:57.358Z,35.45
2018-04-19T10:17:57.341Z,35.55
2018-04-19T10:18:57.330Z,35.74
2018-04-19T10:19:57.323Z,35.84
2018-04-19T10:20:57.304Z,35.84
2018-04-19T10:21:57.295Z,35.64
2018-04-19T10:22:57.274Z,35.47
2018-04-19T10:23:57.279Z,34.59
2018-04-19T10:24:57.246Z,35.86
2018-04-19T10:25:57.235Z,36.24
2018-04-19T10:26:57.227Z,35.35
2018-04-19T10:27:57.209Z,34.11
2018-04-19T10:28:57.196Z,33.90
2018-04-19T10:29:57.187Z,33.43
2018-04-19T10:30:57.197Z,32.73
2018-04-19T10:31:57.154Z,32.73
2018-04-19T10:32:57.147Z,32.82
2018-04-19T10:33:57.126Z,32.75
2018-04-19T10:34:57.118Z,32.75
2018-04-19T10:35:57.099Z,34.01
2018-04-19T10:36:57.088Z,32.92
2018-04-19T10:37:57.073Z,32.92
2018-04-19T10:38:57.062Z,33.22
2018-04-19T10:39:57.053Z,34.19
2018-04-19T10:40:57.032Z,32.64
2018-04-19T10:41:57.019Z,32.34
2018-04-19T10:42:57.014Z,32.54
2018-04-19T10:43:57.003Z,33.12
2018-04-19T10:44:56.982Z,32.92
2018-04-19T10:45:56.967Z,32.44
2018-04-19T10:46:56.950Z,31.76
2018-04-19T10:47:56.935Z,31.57
2018-04-19T10:48:56.930Z,31.27
2018-04-19T10:49:56.909Z,31.66
2018-04-19T10:50:56.906Z,32.24
2018-04-19T10:51:56.892Z,31.66
2018-04-19T10:52:56.922Z,32.64
2018-04-19T10:53:56.858Z,31.18
2018-04-19T10:54:56.850Z,31.18
2018-04-19T10:55:56.839Z,30.11
2018-04-19T10:56:56.821Z,29.91
2018-04-19T10:57:56.812Z,29.14
2018-04-19T10:58:56.795Z,29.24
2018-04-19T10:59:56.779Z,28.75
2018-04-19T11:00:56.827Z,28.45
2018-04-19T11:01:56.801Z,28.55
2018-04-19T11:02:56.743Z,29.35
2018-04-19T11:03:56.737Z,28.57
2018-04-19T11:04:56.721Z,28.18
2018-04-19T11:05:56.708Z,28.38
2018-04-19T11:06:56.746Z,27.69
2018-04-19T11:07:56.722Z,28.18
2018-04-19T11:08:56.732Z,28.38
2018-04-19T11:09:56.658Z,28.76
2018-04-19T11:10:56.646Z,28.28
2018-04-19T11:11:56.638Z,27.98
2018-04-19T11:12:56.622Z,27.89
2018-04-19T11:13:56.610Z,27.69
2018-04-19T11:14:56.605Z,27.61
2018-04-19T11:15:56.596Z,27.98
2018-04-19T11:16:56.580Z,28.58
2018-04-19T11:17:56.572Z,28.39
2018-04-19T11:18:56.559Z,28.38
2018-04-19T11:19:56.560Z,28.66
2018-04-19T11:20:56.537Z,28.76
2018-04-19T11:21:56.534Z,29.44
2018-04-19T11:22:56.520Z,28.96
2018-04-19T11:23:56.513Z,28.96
2018-04-19T11:24:56.501Z,28.38
2018-04-19T11:25:56.490Z,28.96
2018-04-19T11:26:56.490Z,29.15
2018-04-19T11:27:56.488Z,29.64
2018-04-19T11:28:56.460Z,29.15
2018-04-19T11:29:56.466Z,29.35
2018-04-19T11:30:56.478Z,29.55
2018-04-19T11:31:56.474Z,29.06
2018-04-19T11:32:56.465Z,28.97
2018-04-19T11:33:56.486Z,29.35
2018-04-19T11:34:56.462Z,28.97
2018-04-19T11:35:56.466Z,29.36
2018-04-19T11:36:56.474Z,29.46
2018-04-19T11:37:56.490Z,30.52
2018-04-19T11:38:56.504Z,29.26
2018-04-19T11:39:56.481Z,29.46
2018-04-19T11:40:56.467Z,28.97
2018-04-19T11:41:57.742Z,28.58
2018-04-19T11:43:11.175Z,27.51
2018-04-19T11:43:56.463Z,26.83
2018-04-19T11:44:56.467Z,25.08
2018-04-19T11:45:56.437Z,24.01
2018-04-19T11:46:56.448Z,23.62
2018-04-19T11:47:56.472Z,24.50
2018-04-19T11:48:56.417Z,24.79
2018-04-19T11:49:56.356Z,25.27
2018-04-19T11:50:56.359Z,25.67
2018-04-19T11:51:56.272Z,27.51
2018-04-19T11:52:56.257Z,24.89
2018-04-19T11:53:56.254Z,23.91
2018-04-19T11:54:56.239Z,24.01
2018-04-19T11:55:56.238Z,24.69
2018-04-19T11:56:56.218Z,25.08
2018-04-19T11:57:56.210Z,24.40
2018-04-19T11:58:56.204Z,24.50
2018-04-19T11:59:56.197Z,25.18
2018-04-19T12:00:56.203Z,25.96
2018-04-19T12:01:56.173Z,25.19
2018-04-19T12:02:56.915Z,25.97
2018-04-19T12:03:56.151Z,25.96
2018-04-19T12:04:56.138Z,25.18
2018-04-19T12:05:56.134Z,24.71
2018-04-19T12:06:56.139Z,24.50
2018-04-19T12:07:56.112Z,24.11
2018-04-19T12:08:56.097Z,23.62
2018-04-19T12:09:56.084Z,24.30
2018-04-19T12:10:56.078Z,24.21
2018-04-19T12:11:56.072Z,24.69
2018-04-19T12:12:56.057Z,25.18
2018-04-19T12:13:56.044Z,26.64
2018-04-19T12:14:56.041Z,25.27
2018-04-19T12:15:56.016Z,24.60
2018-04-19T12:16:56.009Z,24.69
2018-04-19T12:17:55.996Z,25.85
2018-04-19T12:18:55.983Z,24.21
2018-04-19T12:19:55.978Z,23.72
2018-04-19T12:20:55.961Z,23.24
2018-04-19T12:21:55.964Z,23.14
2018-04-19T12:22:55.941Z,23.24
2018-04-19T12:23:55.950Z,23.14
2018-04-19T12:24:55.955Z,22.75
2018-04-19T12:25:55.979Z,23.35
2018-04-19T12:26:55.890Z,24.21
2018-04-19T12:27:55.876Z,24.11
2018-04-19T12:28:55.863Z,23.33
2018-04-19T12:29:55.852Z,24.21
2018-04-19T12:30:55.838Z,24.50
2018-04-19T12:31:55.837Z,24.60
2018-04-19T12:32:55.813Z,25.57
2018-04-19T12:33:55.806Z,26.64
2018-04-19T12:34:55.793Z,27.42
2018-04-19T12:35:55.776Z,26.54
2018-04-19T12:36:55.761Z,25.67
2018-04-19T12:37:55.754Z,26.64
2018-04-19T12:38:55.743Z,26.44
2018-04-19T12:39:55.748Z,25.27
2018-04-19T12:40:55.717Z,25.76
2018-04-19T12:41:55.706Z,24.69
2018-04-19T12:42:55.691Z,24.99
2018-04-19T12:43:55.690Z,25.48
2018-04-19T12:44:55.668Z,25.67
2018-04-19T12:45:55.655Z,25.97
2018-04-19T12:46:55.640Z,25.58
2018-04-19T12:47:55.625Z,25.96
2018-04-19T12:48:55.613Z,25.86
2018-04-19T12:49:55.605Z,26.54
2018-04-19T12:50:55.588Z,25.86
2018-04-19T12:51:55.573Z,26.33
2018-04-19T12:52:55.560Z,26.82
2018-04-19T12:53:55.548Z,26.82
2018-04-19T12:54:55.538Z,27.11
2018-04-19T12:55:55.516Z,27.78
2018-04-19T12:56:55.505Z,28.36
2018-04-19T12:57:55.492Z,28.45
2018-04-19T12:58:55.481Z,28.94
2018-04-19T12:59:55.496Z,28.36
2018-04-19T13:00:55.471Z,28.47
2018-04-19T13:01:55.440Z,28.75
2018-04-19T13:02:55.425Z,28.66
2018-04-19T13:03:55.411Z,27.68
2018-04-19T13:04:55.399Z,26.90
2018-04-19T13:05:55.429Z,27.58
2018-04-19T13:06:55.375Z,27.58
2018-04-19T13:07:55.360Z,26.51
2018-04-19T13:08:55.341Z,26.90
2018-04-19T13:09:55.350Z,27.29
2018-04-19T13:10:55.334Z,26.71
2018-04-19T13:11:55.301Z,27.29
2018-04-19T13:12:55.344Z,27.87
2018-04-19T13:13:55.272Z,28.36
2018-04-19T13:14:55.261Z,28.75
2018-04-19T13:15:55.241Z,28.74
2018-04-19T13:16:55.349Z,28.74
2018-04-19T13:17:55.216Z,28.44
2018-04-19T13:18:55.207Z,28.93
2018-04-19T13:19:55.194Z,29.32
2018-04-19T13:20:55.177Z,29.32
2018-04-19T13:21:55.165Z,29.80
2018-04-19T13:22:55.163Z,30.29
2018-04-19T13:23:55.133Z,29.32
2018-04-19T13:24:55.125Z,29.32
2018-04-19T13:25:55.153Z,28.93
2018-04-19T13:26:55.146Z,29.30
2018-04-19T13:27:55.129Z,29.11
2018-04-19T13:28:55.132Z,29.32
2018-04-19T13:29:55.082Z,29.79
2018-04-19T13:30:55.037Z,30.57
2018-04-19T13:31:55.021Z,30.95
2018-04-19T13:32:55.005Z,30.87
2018-04-19T13:33:54.992Z,30.66
2018-04-19T13:34:54.981Z,31.34
2018-04-19T13:35:54.964Z,31.15
2018-04-19T13:36:54.947Z,31.05
2018-04-19T13:37:55.020Z,32.50
2018-04-19T13:38:54.915Z,31.24
2018-04-19T13:39:54.950Z,31.34
2018-04-19T13:40:54.916Z,32.31
2018-04-19T13:41:54.880Z,33.86
2018-04-19T13:42:54.863Z,34.64
2018-04-19T13:43:54.843Z,32.79
2018-04-19T13:44:54.957Z,32.31
2018-04-19T13:45:54.814Z,32.21
2018-04-19T13:46:54.809Z,32.50
2018-04-19T13:47:54.790Z,32.12
2018-04-19T13:48:54.785Z,32.41
2018-04-19T13:49:54.812Z,32.31
2018-04-19T13:50:54.745Z,32.79
2018-04-19T13:51:54.731Z,33.28
2018-04-19T13:52:54.721Z,32.99
2018-04-19T13:53:54.701Z,33.38
2018-04-19T13:54:54.691Z,32.79
2018-04-19T13:55:56.365Z,34.06
2018-04-19T13:56:54.808Z,33.38
2018-04-19T13:57:54.654Z,33.38
2018-04-19T13:58:54.629Z,34.06
2018-04-19T13:59:54.615Z,34.54
2018-04-19T14:00:54.608Z,34.16
2018-04-19T14:01:54.654Z,33.76
2018-04-19T14:02:54.632Z,34.33
2018-04-19T14:03:54.606Z,34.64
2018-04-19T14:04:54.605Z,34.91
2018-04-19T14:05:54.649Z,33.94
2018-04-19T14:06:54.622Z,34.64
2018-04-19T14:07:54.614Z,35.98
2018-04-19T14:08:54.601Z,36.18
2018-04-19T14:09:54.611Z,37.05
2018-04-19T14:10:54.584Z,35.88
2018-04-19T14:11:54.575Z,34.93
2018-04-19T14:12:54.498Z,35.01
2018-04-19T14:13:54.499Z,34.14
2018-04-19T14:14:54.551Z,35.01
2018-04-19T14:15:54.391Z,35.11
2018-04-19T14:16:55.518Z,34.91
2018-04-19T14:17:54.366Z,34.62
2018-04-19T14:18:54.338Z,34.62
2018-04-19T14:19:54.325Z,34.91
2018-04-19T14:20:54.309Z,35.30
2018-04-19T14:21:54.288Z,37.34
2018-04-19T14:22:54.282Z,35.49
2018-04-19T14:23:54.311Z,35.59
2018-04-19T14:24:54.298Z,36.85
2018-04-19T14:25:54.235Z,36.56
2018-04-19T14:26:54.219Z,35.30
2018-04-19T14:27:54.204Z,35.59
2018-04-19T14:28:54.193Z,34.81
2018-04-19T14:29:54.179Z,33.46
2018-04-19T14:30:54.162Z,34.53
2018-04-19T14:31:54.146Z,34.62
2018-04-19T14:32:54.132Z,35.40
2018-04-19T14:33:54.118Z,35.01
2018-04-19T14:34:54.101Z,35.21
2018-04-19T14:35:54.086Z,34.81
2018-04-19T14:36:54.091Z,34.91
2018-04-19T14:37:54.607Z,34.72
2018-04-19T14:38:54.046Z,35.01
2018-04-19T14:39:54.084Z,35.88
2018-04-19T14:40:54.016Z,35.67
2018-04-19T14:41:53.997Z,34.04
2018-04-19T14:42:53.996Z,34.04
2018-04-19T14:44:00.758Z,34.04
2018-04-19T14:44:53.964Z,33.07
2018-04-19T14:45:53.940Z,32.78
2018-04-19T14:46:53.928Z,32.87
2018-04-19T14:47:53.912Z,32.29
2018-04-19T14:48:53.894Z,32.39
2018-04-19T14:49:53.899Z,32.18
2018-04-19T14:50:53.868Z,33.84
2018-04-19T14:51:53.855Z,32.78
2018-04-19T14:52:53.842Z,32.78
2018-04-19T14:53:53.820Z,32.29
2018-04-19T14:54:53.803Z,32.59
2018-04-19T14:55:53.805Z,33.26
2018-04-19T14:56:53.779Z,34.72
